Racecast

AJ Varner

Temperance Bedford (MI) · 10 · SECMI D1MONROE · Compare head to head

Athlete rating 96.3 2024 XC season
Best race 115.4 XC
Races 101
Seasons 6 2021 — 2026

RankedNation #122078·MI #4982·MI D1 #2822·SEC #238·Team #63 ?

Rating scale ?
Speed rating — all races

Cross Country

XC speed rating

2024 XC 94.5

Temperance Bedford (MI) · Grade 9

Date Meet Event Result Place Rating Difficulty PR/SR Flags
2024-10-26 Lake Erie Metro Park OFFICIAL 5000m 20:58.2 104th · 12th on team 98.2 +0.007 ★PR ★CR SR CSR RSR
2024-10-17 Hudson Mills Metropark - OFFICIAL 5000m 21:37.11 127th · 15th on team 94.2 -0.006 ★CR CSR
2024-10-12 Munson Park 5000m 21:29.3 47th · 7th on team 96.0 +0.007 ★CR CSR
2024-09-28 Lake Erie Metro Park OFFICIAL 5000m 21:14.7 61st · 13th on team 96.9 +0.007 PR CR SR CSR RSR
2024-09-24 Pioneer HS 5000m 21:47.6 66th · 11th on team 95.7 +0.018 ★CR CSR
2024-09-10 Willow Metropark OFFICIAL 5000m 22:14.7 66th · 8th on team 92.1 -0.003 ★CR CSR
2024-09-07 Hedges Boyer Park 5000m 21:15.5 267th · 14th on team 95.8 -0.003 PR ★CR SR CSR RSR
2024-08-31 BGSU 5000m 23:24.3 186th · 19th on team 87.0 -0.003 ★CR CSR
2024-08-23 Ford Field/EE Ice Arena(LIVONIA) OFFICIAL 5000m 21:58.3 116th · 9th on team 94.4 +0.013 PR ★CR SR CSR RSR

2022 XC 111.2

Temperance Bedford (MI) · Grade 7

Date Meet Event Result Place Rating Difficulty PR/SR Flags
2022-10-22 Hudson HS 3218m 12:57.8 52nd · 5th on team 115.4 -0.010 ★CR ★R CSR RSR
2022-10-19 Saline High School 3218m 13:43.4 54th · 8th on team 108.6 -0.021 ★CR CSR
2022-10-15 Munson Park 3200m 13:17 46th · 9th on team 113.1 +0.000 ★PR ★CR SR CSR
2022-10-08 Monroe Township Stoneco Park 3218m 12:47.9 21st · 7th on team 114.5 -0.030 ★PR ★CR R SR CSR RSR
2022-10-05 Tecumseh HS 3218m 13:27.8 48th · 7th on team 111.5 -0.008 ★CR CSR
2022-09-23 Ella Sharp Park OFFICIAL 3218m 13:21 56th · 7th on team 114.3 +0.004 PR ★CR R SR CSR RSR
2022-09-21 Manly W. Bennett Park 3218m 14:39.3 46th · 6th on team 109.5 +0.058 ★CR SR CSR
2022-09-17 Ottawa Park Golf Course 3200m 13:50.7 34th · 5th on team 112.4 +0.027 PR ★CR SR CSR RSR
2022-09-10 Hedges Boyer Park 2816m 13:17.6 76th · 5th on team 101.3 ★PR ★CR SR CSR RSR

2021 XC 109.4

Temperance Bedford (MI) · Grade 6

Date Meet Event Result Place Rating Difficulty PR/SR Flags
2021-10-20 Munson Park 3200m 14:15.4 16th · 5th on team 107.0 +0.000 CR CSR
2021-10-16 Munson Park 3200m 15:01 36th · 13th on team 101.5 +0.000 CR CSR
2021-10-09 Monroe Township Stoneco Park 3218m 13:42.3 2nd · 2nd on team 108.5 -0.030 PR CR SR CSR
2021-10-06 Hudson Mills Metropark - OFFICIAL 3218m 13:43.4 13th · 4th on team 113.8 +0.020 PR ★CR R SR CSR RSR
2021-09-24 Ella Sharp Park OFFICIAL 3218m 14:02.3 75th · 12th on team 111.2 +0.004 PR CR SR CSR
2021-09-18 Ottawa Park Golf Course 3200m 13:54.7 81st · 13th on team 112.3 +0.027 PR CR R SR CSR RSR
2021-09-01 Eastwood High School 3200m 14:06 30th · 5th on team 111.8 +0.037 PR ★CR R SR CSR RSR

Track & Field

TF speed rating

2026 TF

Temperance Bedford (MI) · Grade 10

Date Meet Event Result Place Rating Difficulty PR/SR Flags
2026-05-30 MHSAA LP Division 1 Finals 110mh 15.61 34th · 1st on team -0.033
2026-05-26 2026 Larry Steeb Memorial Meet of Champions 110mh 15.38 6th · 1st on team -0.027
2026-05-22 2026 MITCA D1 Team State 300mh 43.58 17th · 3rd on team -0.031
2026-05-22 2026 MITCA D1 Team State 110mh 15.29 3rd · 1st on team -0.031
2026-05-15 MHSAA LP Region 05-1 @ Saline 110mh 15.15 8th · 2nd on team -0.033
2026-05-15 MHSAA LP Region 05-1 @ Saline 110mh 14.72 3rd · 1st on team -0.033 ★PR SR
2026-05-07 SEC-HS Red Championship (EQ Approved) 300mh 43.6 11th · 4th on team -0.024
2026-05-07 SEC-HS Red Championship (EQ Approved) 110mh 15.4 2nd · 1st on team -0.024
2026-05-01 2026 Saline Golden Triangle (EQ Approved) 110mh 15.16 6th · 1st on team -0.033
2026-05-01 2026 Saline Golden Triangle (EQ Approved) 110mh 15.36 8th · 2nd on team -0.033
2026-04-28 SEC-HS: Bedford @ Monroe 300mh 43.35 2nd · 2nd on team -0.022
2026-04-28 SEC-HS: Bedford @ Monroe 110mh 15.19 1st · 1st on team -0.022
2026-04-25 Railsplitter Invite (EQ approved) 110mh 15.45 3rd · 2nd on team -0.021
2026-04-25 Railsplitter Invite (EQ approved) 300mh 42.76 4th · 2nd on team -0.021 ★PR SR
2026-04-25 Railsplitter Invite (EQ approved) 110mh 15.05 1st · 1st on team -0.021
2026-04-17 6th Toledo St. John's Jesuit Titan Invite 110mh 15.25 1st · 1st on team -0.035
2026-04-14 SEC-HS: Huron & Saline at Bedford 110mh 14.74 2nd · 1st on team -0.026 PR SR
2026-04-14 SEC-HS: Huron & Saline at Bedford 300mh 42.9 5th · 3rd on team -0.026 PR SR
2026-04-14 SEC-HS: Huron & Saline at Bedford 100m 11.69 14th · 3rd on team -0.026 ★PR SR
2026-04-10 Whitmer Gold W Invite 110mh 14.93 2nd · 1st on team -0.034 PR SR
2026-04-07 SEC-HS: Bedford & Dexter @ Skyline 110mh 15.25 1st · 1st on team -0.021 PR SR
2026-04-07 SEC-HS: Bedford & Dexter @ Skyline 100m 11.87 5th · 1st on team -0.021 SR
2026-04-07 SEC-HS: Bedford & Dexter @ Skyline 300mh 44.6 2nd · 2nd on team -0.021 SR
2026-03-26 Lincoln Indoor Invite 60mh 8.22 1st · 1st on team -0.029 ★PR SR
2026-03-26 Lincoln Indoor Invite 60mh 8.58 10th · 2nd on team -0.029
2026-03-22 Adidas Indoor National 60mh 8.59 26th · 4th on team -0.035 PR SR
2026-01-18 HS Showcase 60mh 8.83 53rd · 14th on team -0.035 PR SR
2026-01-03 LAB Indoor Meet #4 60m 7.59 61st · 1st on team -0.029
2026-01-03 LAB Indoor Meet #4 60mh 8.98 10th · 1st on team -0.029 PR SR
2025-12-27 LAB Holiday Invite 60mh 9.06 22nd · 1st on team -0.029 PR SR
2025-12-27 LAB Holiday Invite 60m 7.58 57th · 1st on team -0.029 ★PR SR
2025-12-27 LAB Holiday Invite 60mh 9.1 25th · 2nd on team -0.029

2025 TF

Temperance Bedford (MI) · Grade 9

Date Meet Event Result Place Rating Difficulty PR/SR Flags
2025-06-19 New Balance Nationals Outdoor 110mh 15.41 23rd · 1st on team -0.045 PR SR
2025-06-07 3rd Annual MITCA Champions of Champions TF Festival 100m 11.87 3rd · 1st on team -0.031 PR SR
2025-06-07 3rd Annual MITCA Champions of Champions TF Festival 110mh 15.62 1st · 1st on team -0.031
2025-05-27 25 Larry Steeb Memorial Meet of Champions 110mh 15.44 7th · 2nd on team -0.027 PR SR
2025-05-22 Dundee Jim Beck Freshman Invite 110mh 15.87 1st · 1st on team -0.016
2025-05-22 Dundee Jim Beck Freshman Invite 200m 24.75 4th · 1st on team -0.016 ★PR SR
2025-05-22 Dundee Jim Beck Freshman Invite 100m 11.93 3rd · 1st on team -0.016
2025-05-16 MHSAA LP Region 05-1 @ Ypsi Lincoln 110mh 15.83 16th · 6th on team -0.021
2025-05-10 Railsplitter Invite (EQ Approved) 110mh 15.83 4th · 4th on team -0.021
2025-05-10 Railsplitter Invite (EQ Approved) 300mh 46.24 7th · 2nd on team -0.021
2025-05-08 SEC-HS Championship (Red) (EQ Approved) 300mh 44.37 9th · 5th on team -0.026 PR SR
2025-05-08 SEC-HS Championship (Red) (EQ Approved) 110mh 16.45 5th · 5th on team -0.026
2025-05-01 Knight Classic 2025 100m 11.87 2nd · 1st on team -0.033 PR SR
2025-05-01 Knight Classic 2025 300mh 45.58 4th · 2nd on team -0.033
2025-05-01 Knight Classic 2025 110mh 15.71 1st · 1st on team -0.033 PR SR
2025-04-29 SEC-HS: Lincoln @ Bedford 110mh 16.11 5th · 5th on team -0.026 PR SR
2025-04-29 SEC-HS: Lincoln @ Bedford 300mh 44.56 5th · 5th on team -0.026 PR SR
2025-04-29 SEC-HS: Lincoln @ Bedford 100m 12.21 8th · 6th on team -0.026 PR SR
2025-04-26 2025 April Showers Invitational (EQ Approved) 300mh 45.37 8th · 4th on team -0.027 PR SR
2025-04-26 2025 April Showers Invitational (EQ Approved) 110mh 16.32 8th · 5th on team -0.027 PR SR
2025-04-22 SEC-HS: Bedford & Pioneer @ Monroe 110mh 16.32 4th · 4th on team -0.022 PR SR
2025-04-22 SEC-HS: Bedford & Pioneer @ Monroe 300mh 45.73 4th · 4th on team -0.022 PR SR
2025-04-15 SEC-HS: Bedford & Dexter @ Skyline 110mh 16.52 4th · 4th on team -0.021 PR SR
2025-04-15 SEC-HS: Bedford & Dexter @ Skyline 300mh 48.23 4th · 3rd on team -0.021 PR SR
2024-12-27 LAB Holiday Invite 60mh 9.77 23rd · 3rd on team -0.029 PR SR
2024-12-27 LAB Holiday Invite 60mh 10.05 25th · 4th on team -0.029
2024-12-27 LAB Holiday Invite 60m 8.29 98th · 6th on team -0.029
2024-12-14 LAB Indoor Meet #1 60m 8.05 114th · 4th on team -0.029 PR SR
2024-12-14 LAB Indoor Meet #1 60mh 9.81 27th · 2nd on team -0.029 PR SR
2024-12-14 LAB Indoor Meet #1 300m 42.48 79th · 3rd on team -0.029 ★PR SR

2023 TF

Temperance Bedford (MI) · Grade 7

Date Meet Event Result Place Rating Difficulty PR/SR Flags
2023-05-22 SEC-MS: Championship 55mh 8.75 2nd · 2nd on team -0.033 ★PR SR
2023-05-22 SEC-MS: Championship 100m 13.46 17th · 2nd on team -0.033
2023-05-15 SEC-MS: Lincoln & Bedford @ Monroe 55mh 8.83 2nd · 2nd on team -0.022 PR SR
2023-05-15 SEC-MS: Lincoln & Bedford @ Monroe 200mh 31.3 6th · 5th on team -0.022
2023-05-04 SEC-MS Bedford at Saline 200mh 29.81 2nd · 1st on team -0.029 ★PR SR
2023-05-04 SEC-MS Bedford at Saline 400m 1:06.81 7th · 6th on team -0.029 ★PR SR
2023-04-27 SEC-MS: Bedford @ Pinckney 200mh 30.14 2nd · 2nd on team -0.020 PR SR
2023-04-27 SEC-MS: Bedford @ Pinckney 100m 13.04 2nd · 2nd on team -0.020 PR SR

2022 TF 102.8

Temperance Bedford (MI) · Grade 6

Date Meet Event Result Place Rating Difficulty PR/SR Flags
2022-05-18 22 Middle School Hornet Relays 1600m 6:25.22 53rd · 12th on team 104.2 -0.033 ★PR SR RSR
2022-05-09 SEC-MS Tecumseh @ Bedford 800m 3:02.6 8th · 8th on team 101.2 -0.026
2022-05-09 SEC-MS Tecumseh @ Bedford 400m 1:07.24 9th · 8th on team -0.026 PR SR
2022-04-28 SEC-MS Monroe @ Bedford 100m 14.27 6th · 5th on team -0.026
2022-04-25 SEC MS: Lincoln @ Bedford 100m 13.37 6th · 5th on team -0.026 PR SR
2022-04-25 SEC MS: Lincoln @ Bedford 800m 2:59.11 3rd · 3rd on team 102.9 -0.026 ★PR SR RSR